Time;durP1;ratioP1;P1;durP2;ratioP2;P2;SDS_P1;SDS_P2;PMS_P1;PMS_P2;Temp;Humidity;BMP_temperature;BMP_pressure;BME280_temperature;BME280_humidity;BME280_pressure;Samples;Min_cycle;Max_cycle;Signal;HPM_P1;HPM_P2
2022/04/21 00:01:20;;;;;;;25.77;18.43;;;;;;;5.24;56.83;100038.89;1373226;89;23433;-81
2022/04/21 00:03:47;;;;;;;27.70;18.47;;;;;;;5.17;56.92;100037.70;1359233;90;21822;-83
2022/04/21 00:06:14;;;;;;;22.20;15.37;;;;;;;5.11;57.14;100040.33;1358399;92;21709;-82
2022/04/21 00:08:41;;;;;;;17.73;11.77;;;;;;;5.07;56.89;100046.79;1358413;91;21777;-84
2022/04/21 00:11:08;;;;;;;19.73;11.17;;;;;;;5.06;56.96;100042.97;1348661;90;21909;-83
2022/04/21 00:13:36;;;;;;;17.67;11.10;;;;;;;5.03;57.71;100048.45;1340387;92;21679;-82
2022/04/21 00:16:04;;;;;;;15.17;11.10;;;;;;;4.98;57.76;100047.04;1359482;91;22518;-82
2022/04/21 00:18:33;;;;;;;19.47;11.77;;;;;;;4.92;58.11;100048.84;1343701;92;22705;-83
2022/04/21 00:21:01;;;;;;;17.57;11.33;;;;;;;4.87;57.94;100050.16;1361744;91;21527;-83
2022/04/21 00:23:29;;;;;;;15.30;9.90;;;;;;;4.82;58.31;100055.74;1361725;91;21580;-82
2022/04/21 00:26:01;;;;;;;17.27;10.97;;;;;;;4.78;58.46;100043.84;1359939;91;21556;-81
2022/04/21 00:28:29;;;;;;;22.97;14.13;;;;;;;4.74;58.29;100039.77;1340048;91;22509;-81
2022/04/21 00:30:57;;;;;;;44.17;25.43;;;;;;;4.71;58.67;100041.33;1347879;92;22925;-85
2022/04/21 00:33:24;;;;;;;19.17;12.40;;;;;;;4.63;58.94;100035.39;1369683;90;21668;-84
2022/04/21 00:35:52;;;;;;;11.87;8.37;;;;;;;4.56;59.50;100039.90;1372762;90;21550;-83
2022/04/21 00:38:19;;;;;;;19.20;12.00;;;;;;;4.47;59.13;100038.83;1352130;91;21736;-83
2022/04/21 00:40:50;;;;;;;17.63;11.10;;;;;;;4.44;58.89;100039.89;1351260;90;21704;-84
2022/04/21 00:43:17;;;;;;;13.03;8.45;;;;;;;4.44;58.97;100043.82;1344191;92;21674;-82
2022/04/21 00:45:45;;;;;;;15.63;8.63;;;;;;;4.43;59.58;100043.92;1389206;88;21345;-84
2022/04/21 00:48:12;;;;;;;16.27;9.10;;;;;;;4.38;59.50;100048.22;1399344;88;21736;-83
2022/04/21 00:50:39;;;;;;;13.73;8.27;;;;;;;4.35;59.28;100048.46;1398138;87;21699;-83
2022/04/21 00:53:08;;;;;;;15.10;9.43;;;;;;;4.34;59.18;100041.53;1393913;88;21670;-82
2022/04/21 00:55:38;;;;;;;13.87;7.60;;;;;;;4.32;59.52;100047.39;1358264;90;21574;-84
2022/04/21 00:58:07;;;;;;;16.27;9.47;;;;;;;4.30;59.73;100051.90;1337405;92;22649;-84
2022/04/21 01:00:35;;;;;;;16.37;11.83;;;;;;;4.27;59.46;100049.52;1336507;92;22957;-84
2022/04/21 01:03:05;;;;;;;18.30;10.93;;;;;;;4.23;59.87;100051.98;1380207;88;21806;-84
2022/04/21 01:05:35;;;;;;;14.63;10.23;;;;;;;4.20;60.22;100056.16;1388464;88;21557;-84
2022/04/21 01:08:08;;;;;;;14.98;10.18;;;;;;;4.13;60.98;100055.79;1392403;88;21464;-83
2022/04/21 01:10:38;;;;;;;13.73;9.20;;;;;;;4.09;60.37;100052.22;1393863;88;21330;-85
2022/04/21 01:13:08;;;;;;;20.63;9.73;;;;;;;4.07;60.69;100052.33;1412909;86;22371;-85
2022/04/21 01:15:37;;;;;;;15.63;9.23;;;;;;;4.02;60.82;100051.34;1413076;86;21419;-87
2022/04/21 01:18:06;;;;;;;15.73;9.27;;;;;;;3.98;61.02;100045.99;1416825;87;21590;-86
2022/04/21 01:20:34;;;;;;;13.93;8.77;;;;;;;3.93;61.29;100048.11;1417038;86;22962;-85
2022/04/21 01:23:01;;;;;;;12.70;9.43;;;;;;;3.86;61.96;100057.39;1413314;86;22442;-86
2022/04/21 01:25:38;;;;;;;14.57;7.90;;;;;;;3.79;62.08;100061.39;1412658;86;21366;-86
2022/04/21 01:28:06;;;;;;;11.40;9.00;;;;;;;3.72;62.49;100057.57;1419286;86;21631;-85
2022/04/21 01:30:33;;;;;;;21.50;10.83;;;;;;;3.67;61.97;100062.30;1417287;86;21538;-85
2022/04/21 01:33:00;;;;;;;18.23;10.97;;;;;;;3.59;61.94;100062.37;1413460;87;21457;-85
2022/04/21 01:35:27;;;;;;;12.93;9.90;;;;;;;3.58;61.85;100058.09;1413732;87;21478;-86
2022/04/21 01:43:25;;;;;;;18.83;11.73;;;;;;;3.61;62.01;100064.41;1390339;88;21455;-85
2022/04/21 01:45:52;;;;;;;16.87;11.13;;;;;;;3.63;61.88;100056.46;1402062;88;21489;-86
2022/04/21 01:48:19;;;;;;;16.73;10.77;;;;;;;3.65;62.44;100054.55;1413186;87;21583;-85
2022/04/21 01:50:46;;;;;;;16.93;11.23;;;;;;;3.63;62.49;100060.87;1413410;87;21476;-85
2022/04/21 01:53:13;;;;;;;15.17;11.30;;;;;;;3.60;61.88;100056.69;1392442;87;21434;-85
2022/04/21 01:55:41;;;;;;;17.33;12.03;;;;;;;3.59;61.88;100060.23;1404111;88;22446;-85
2022/04/21 01:58:08;;;;;;;14.43;10.80;;;;;;;3.59;61.97;100061.06;1409477;87;21668;-85
2022/04/21 02:00:35;;;;;;;18.70;10.27;;;;;;;3.59;62.32;100059.75;1414961;86;21645;-82
2022/04/21 02:03:02;;;;;;;24.70;11.03;;;;;;;3.54;62.87;100053.19;1417619;86;21733;-84
2022/04/21 02:05:30;;;;;;;16.00;9.73;;;;;;;3.47;63.04;100057.20;1420808;86;22606;-84
2022/04/21 02:07:57;;;;;;;14.60;9.60;;;;;;;3.41;62.59;100060.27;1420405;86;21503;-84
2022/04/21 02:10:24;;;;;;;16.93;10.50;;;;;;;3.32;62.67;100058.67;1413800;86;21514;-83
2022/04/21 02:12:51;;;;;;;15.60;10.47;;;;;;;3.30;62.80;100048.78;1417140;86;21489;-83
2022/04/21 02:15:19;;;;;;;18.33;11.20;;;;;;;3.28;63.45;100051.14;1410779;86;22533;-84
2022/04/21 02:17:46;;;;;;;16.93;10.70;;;;;;;3.25;63.24;100057.91;1412048;87;21767;-81
2022/04/21 02:20:15;;;;;;;16.40;9.90;;;;;;;3.19;63.34;100058.34;1411653;87;23043;-82
2022/04/21 02:22:45;;;;;;;17.30;10.53;;;;;;;3.14;63.19;100052.98;1413746;87;21532;-82
2022/04/21 02:25:15;;;;;;;14.47;10.13;;;;;;;3.13;63.19;100049.16;1411934;87;21733;-81
2022/04/21 02:27:44;;;;;;;15.47;10.97;;;;;;;3.17;63.38;100045.39;1396412;88;21672;-82
2022/04/21 02:30:14;;;;;;;15.30;9.23;;;;;;;3.22;63.44;100051.11;1410902;87;21683;-83
2022/04/21 02:32:42;;;;;;;14.73;10.38;;;;;;;3.19;63.29;100055.25;1375120;90;21575;-84
2022/04/21 02:35:10;;;;;;;14.37;10.30;;;;;;;3.18;63.29;100049.67;1387048;89;21406;-86
2022/04/21 02:37:46;;;;;;;16.63;10.87;;;;;;;3.20;63.21;100049.58;1390492;89;22782;-85
2022/04/21 02:40:15;;;;;;;11.67;9.20;;;;;;;3.22;63.10;100052.89;1387152;90;21435;-85
2022/04/21 02:42:43;;;;;;;22.10;11.93;;;;;;;3.26;63.19;100056.98;1410730;87;21500;-86
2022/04/21 02:45:12;;;;;;;14.27;9.83;;;;;;;3.29;63.02;100061.98;1412560;87;21502;-86
2022/04/21 02:47:41;;;;;;;38.13;11.43;;;;;;;3.30;62.89;100059.73;1413991;87;21749;-85
2022/04/21 02:50:11;;;;;;;11.30;8.43;;;;;;;3.29;63.19;100061.98;1413288;87;21514;-85
2022/04/21 02:52:40;;;;;;;18.17;8.97;;;;;;;3.30;62.89;100057.11;1399430;88;21519;-85
2022/04/21 02:57:55;;;;;;;14.47;10.40;;;;;;;3.27;62.98;100058.64;1411931;86;21502;-87
2022/04/21 03:00:22;;;;;;;13.87;9.67;;;;;;;3.26;62.81;100063.52;1400034;88;21476;-85
2022/04/21 03:02:49;;;;;;;15.30;9.87;;;;;;;3.26;63.34;100061.73;1414427;87;21544;-85
2022/04/21 03:05:16;;;;;;;13.33;9.87;;;;;;;3.26;62.94;100063.52;1416359;86;21433;-85
2022/04/21 03:07:44;;;;;;;14.33;9.60;;;;;;;3.24;62.98;100058.86;1415148;86;22464;-85
2022/04/21 03:10:11;;;;;;;14.70;10.10;;;;;;;3.18;63.01;100053.59;1420697;86;21689;-85
2022/04/21 03:12:38;;;;;;;16.80;9.37;;;;;;;3.15;63.00;100053.81;1420215;86;21662;-85
2022/04/21 03:15:06;;;;;;;16.60;9.83;;;;;;;3.12;62.96;100047.02;1414257;86;21850;-84
2022/04/21 03:17:33;;;;;;;13.37;10.30;;;;;;;3.10;62.91;100047.59;1413057;87;22511;-86
2022/04/21 03:20:00;;;;;;;16.00;9.30;;;;;;;3.09;63.28;100047.24;1413906;87;21411;-86
2022/04/21 03:25:15;;;;;;;16.63;10.30;;;;;;;2.96;63.63;100054.27;1413867;87;21506;-85
2022/04/21 03:27:46;;;;;;;18.40;10.13;;;;;;;2.95;64.05;100055.22;1414002;87;21483;-85
2022/04/21 03:30:11;;;;;;;13.07;10.73;;;;;;;2.92;64.11;100054.13;1411164;86;22523;-85
2022/04/21 03:32:40;;;;;;;14.17;9.90;;;;;;;2.90;64.10;100052.09;1419085;86;21608;-85
2022/04/21 03:35:07;;;;;;;13.53;9.90;;;;;;;2.86;64.48;100048.03;1413766;87;21353;-85
2022/04/21 03:37:34;;;;;;;16.73;10.67;;;;;;;2.85;64.06;100049.81;1413311;87;21643;-82
2022/04/21 03:40:01;;;;;;;17.37;10.23;;;;;;;2.84;64.39;100048.60;1413944;87;21640;-82
2022/04/21 03:42:31;;;;;;;17.30;11.87;;;;;;;2.86;64.11;100051.48;1415480;87;21526;-84
2022/04/21 03:44:59;;;;;;;16.20;11.30;;;;;;;2.88;64.13;100044.85;1415395;86;21574;-83
2022/04/21 03:47:27;;;;;;;18.60;11.13;;;;;;;2.85;64.07;100047.65;1414241;87;22393;-83
2022/04/21 03:49:54;;;;;;;15.50;10.97;;;;;;;2.86;64.31;100052.78;1401513;88;21529;-83
2022/04/21 03:52:21;;;;;;;16.30;11.73;;;;;;;2.88;64.16;100057.92;1413696;87;21480;-83
2022/04/21 03:54:50;;;;;;;15.87;11.00;;;;;;;2.92;63.99;100058.88;1413895;87;22518;-83
2022/04/21 03:57:17;;;;;;;20.93;11.47;;;;;;;2.93;64.19;100055.34;1413457;87;22500;-83
2022/04/21 03:59:44;;;;;;;16.57;11.27;;;;;;;2.90;64.16;100056.01;1413700;87;21682;-84
2022/04/21 04:02:11;;;;;;;14.13;10.17;;;;;;;2.89;64.31;100059.58;1394358;87;21515;-82
2022/04/21 04:04:38;;;;;;;17.87;11.63;;;;;;;2.89;64.45;100060.88;1413288;87;21829;-83
2022/04/21 04:12:40;;;;;;;19.73;10.63;;;;;;;2.98;64.68;100064.63;1411159;87;21538;-82
2022/04/21 04:15:09;;;;;;;14.73;10.10;;;;;;;3.04;64.83;100062.41;1410452;86;21611;-80
2022/04/21 04:17:37;;;;;;;15.77;10.17;;;;;;;3.07;64.68;100059.58;1413125;87;21612;-81
2022/04/21 04:20:06;;;;;;;17.07;10.30;;;;;;;3.12;64.63;100064.02;1412568;86;22467;-82
2022/04/21 04:22:40;;;;;;;16.27;10.87;;;;;;;3.18;64.46;100060.61;1410415;87;21623;-81
2022/04/21 04:25:09;;;;;;;16.50;10.63;;;;;;;3.26;64.56;100060.91;1413725;87;21591;-86
2022/04/21 04:27:36;;;;;;;18.30;12.03;;;;;;;3.31;64.72;100054.40;1399038;88;21626;-84
2022/04/21 04:30:08;;;;;;;21.90;11.37;;;;;;;3.39;64.69;100060.36;1413009;86;21590;-84
2022/04/21 04:32:36;;;;;;;22.27;10.67;;;;;;;3.44;64.70;100054.81;1408349;88;22520;-84
2022/04/21 04:35:04;;;;;;;16.70;11.27;;;;;;;3.49;64.57;100054.84;1412394;87;22464;-84
2022/04/21 04:37:31;;;;;;;18.80;12.07;;;;;;;3.52;65.11;100054.62;1412670;87;21615;-84
2022/04/21 04:39:59;;;;;;;19.47;11.43;;;;;;;3.60;64.82;100058.83;1413901;87;21485;-84
2022/04/21 04:42:28;;;;;;;14.03;11.30;;;;;;;3.69;64.79;100061.72;1415329;86;21700;-84
2022/04/21 04:47:41;;;;;;;17.40;11.73;;;;;;;3.75;65.24;100058.65;1410009;86;21386;-82
2022/04/21 04:50:09;;;;;;;15.17;10.80;;;;;;;3.83;65.35;100058.45;1410158;87;21512;-82
2022/04/21 04:52:37;;;;;;;18.80;11.90;;;;;;;3.84;66.51;100056.66;1413981;87;21443;-83
2022/04/21 04:55:09;;;;;;;21.90;11.90;;;;;;;3.90;66.92;100054.89;1412430;86;21659;-85
2022/04/21 04:57:36;;;;;;;23.67;13.97;;;;;;;3.96;66.70;100060.97;1397440;88;21550;-84
2022/04/21 05:00:05;;;;;;;19.93;11.97;;;;;;;4.01;66.93;100065.41;1410661;87;22487;-85
2022/04/21 05:02:32;;;;;;;27.43;13.70;;;;;;;4.06;68.09;100060.66;1411213;87;21752;-84
2022/04/21 05:05:00;;;;;;;22.90;13.77;;;;;;;4.11;69.04;100060.78;1411405;87;22410;-85
2022/04/21 05:07:28;;;;;;;18.13;13.37;;;;;;;4.20;69.08;100058.77;1410590;86;21657;-85
2022/04/21 05:09:55;;;;;;;27.90;14.17;;;;;;;4.27;68.50;100058.69;1402745;88;21569;-84
2022/04/21 05:12:22;;;;;;;20.37;13.67;;;;;;;4.37;68.22;100059.64;1411481;86;22609;-85
2022/04/21 05:14:49;;;;;;;23.00;14.83;;;;;;;4.46;68.54;100062.89;1411092;87;22426;-84
2022/04/21 05:17:16;;;;;;;20.87;15.10;;;;;;;4.50;69.13;100066.93;1411486;87;21724;-83
2022/04/21 05:19:44;;;;;;;28.90;16.07;;;;;;;4.59;68.24;100064.08;1410940;87;21704;-82
2022/04/21 05:22:13;;;;;;;23.50;16.27;;;;;;;4.67;68.39;100061.70;1407930;87;21567;-82
2022/04/21 05:24:46;;;;;;;21.50;14.60;;;;;;;4.79;68.85;100063.85;1409970;87;21510;-80
2022/04/21 05:27:17;;;;;;;26.30;16.27;;;;;;;4.87;68.24;100061.47;1412484;88;21576;-81
2022/04/21 05:32:38;;;;;;;24.87;16.20;;;;;;;5.11;68.17;100072.30;1409809;87;21376;-81
2022/04/21 05:35:06;;;;;;;82.47;18.83;;;;;;;5.23;67.57;100066.55;1414831;88;21717;-81
2022/04/21 05:37:35;;;;;;;23.20;15.00;;;;;;;5.23;67.57;100066.55;1416077;86;22038;-80
2022/04/21 05:40:05;;;;;;;21.60;16.10;;;;;;;5.35;66.97;100072.98;1410990;86;21823;-80
2022/04/21 05:42:35;;;;;;;28.17;17.43;;;;;;;5.45;66.79;100074.86;1409413;87;22754;-80
2022/04/21 05:45:04;;;;;;;24.23;16.57;;;;;;;5.56;66.76;100062.53;1409520;87;22802;-80
2022/04/21 05:47:40;;;;;;;24.30;15.40;;;;;;;5.79;66.10;100071.17;1409703;87;21287;-81
2022/04/21 05:50:10;;;;;;;27.93;15.67;;;;;;;5.79;66.10;100071.17;1409591;87;22162;-80
2022/04/21 05:52:38;;;;;;;25.53;16.33;;;;;;;5.97;65.72;100081.16;1409335;87;22109;-80
2022/04/21 05:55:07;;;;;;;29.77;16.97;;;;;;;6.10;65.12;100084.45;1409400;87;22037;-80
2022/04/21 05:57:40;;;;;;;45.63;17.37;;;;;;;6.16;64.96;100079.98;1409466;87;22917;-80
2022/04/21 06:00:09;;;;;;;29.50;17.17;;;;;;;6.25;64.78;100085.78;1409262;87;22284;-80
2022/04/21 06:02:38;;;;;;;24.40;16.23;;;;;;;6.37;64.44;100081.30;1409536;87;23506;-80
2022/04/21 06:05:07;;;;;;;27.57;15.40;;;;;;;6.47;64.22;100083.97;1412061;87;22784;-81
2022/04/21 06:07:34;;;;;;;26.13;16.37;;;;;;;6.58;63.63;100087.84;1413299;87;22012;-81
2022/04/21 06:10:02;;;;;;;20.87;16.03;;;;;;;6.82;62.56;100074.41;1413163;87;22005;-81
2022/04/21 06:12:30;;;;;;;25.20;15.80;;;;;;;6.92;62.43;100079.70;1413006;86;22182;-80
2022/04/21 06:14:58;;;;;;;24.03;15.13;;;;;;;6.92;62.43;100079.70;1413220;87;21383;-80
2022/04/21 06:17:27;;;;;;;21.87;15.03;;;;;;;7.03;62.01;100078.30;1413113;87;22218;-81
2022/04/21 06:19:55;;;;;;;28.63;16.90;;;;;;;7.18;62.13;100084.84;1413061;88;21310;-81
2022/04/21 06:22:22;;;;;;;24.27;15.60;;;;;;;7.35;61.69;100086.48;1412964;87;21199;-81
2022/04/21 06:24:49;;;;;;;25.97;16.40;;;;;;;7.53;61.46;100090.12;1413053;87;21317;-82
2022/04/21 06:27:25;;;;;;;27.93;16.17;;;;;;;7.67;60.96;100088.41;1395152;88;21317;-81
2022/04/21 06:29:59;;;;;;;17.13;14.50;;;;;;;7.80;60.37;100092.59;1412885;87;21332;-81
2022/04/21 06:32:26;;;;;;;20.97;15.40;;;;;;;7.91;59.77;100093.75;1413037;87;21242;-82
2022/04/21 06:34:56;;;;;;;19.60;14.70;;;;;;;7.99;59.05;100097.02;1412930;87;21229;-81
2022/04/21 06:37:25;;;;;;;21.73;15.18;;;;;;;8.10;59.00;100095.07;1413078;87;22822;-82
2022/04/21 06:39:55;;;;;;;61.70;17.13;;;;;;;8.17;57.77;100095.83;1413229;87;21368;-82
2022/04/21 06:42:28;;;;;;;25.80;16.30;;;;;;;8.18;58.10;100093.55;1412954;87;21376;-82
2022/04/21 06:48:01;;;;;;;21.90;15.23;;;;;;;8.43;57.27;100102.69;1387076;88;21271;-81
2022/04/21 06:50:33;;;;;;;22.53;14.10;;;;;;;8.58;57.04;100098.16;1397709;89;21249;-81
2022/04/21 06:53:05;;;;;;;18.07;14.07;;;;;;;8.67;56.95;100096.96;1391066;88;22305;-81
2022/04/21 06:55:33;;;;;;;22.30;14.33;;;;;;;8.80;56.90;100092.18;1384526;88;21390;-81
2022/04/21 06:58:01;;;;;;;22.60;14.60;;;;;;;8.95;56.06;100093.89;1384568;89;21526;-81
2022/04/21 07:00:29;;;;;;;18.60;14.53;;;;;;;9.05;55.34;100088.06;1384403;89;21452;-80
2022/04/21 07:02:58;;;;;;;19.43;15.00;;;;;;;9.15;55.36;100094.60;1384260;89;21350;-80
2022/04/21 07:05:27;;;;;;;18.53;14.87;;;;;;;9.26;55.26;100093.95;1387096;88;21333;-80
2022/04/21 07:07:54;;;;;;;20.17;14.07;;;;;;;9.36;54.51;100097.84;1392116;88;21282;-81
2022/04/21 07:10:22;;;;;;;16.53;13.20;;;;;;;9.49;53.80;100099.66;1392370;88;21282;-82
2022/04/21 07:12:51;;;;;;;21.70;15.17;;;;;;;9.48;53.80;100100.61;1373898;88;21304;-81
2022/04/21 07:15:18;;;;;;;19.63;13.80;;;;;;;9.59;54.38;100100.08;1392146;88;21311;-81
2022/04/21 07:17:45;;;;;;;23.23;12.80;;;;;;;9.79;53.79;100106.06;1392253;88;21482;-82
2022/04/21 07:20:12;;;;;;;18.57;12.67;;;;;;;9.88;52.91;100102.02;1392055;87;21378;-82
2022/04/21 07:22:40;;;;;;;20.33;14.33;;;;;;;10.08;52.66;100096.58;1392200;88;21311;-81
2022/04/21 07:25:12;;;;;;;21.23;13.70;;;;;;;10.22;52.52;100102.64;1392314;88;21356;-82
2022/04/21 07:27:41;;;;;;;21.93;13.73;;;;;;;10.28;51.42;100102.55;1391931;88;21275;-81
2022/04/21 07:30:09;;;;;;;20.00;13.43;;;;;;;10.27;51.41;100093.80;1373614;90;21318;-82
2022/04/21 07:32:44;;;;;;;18.33;14.20;;;;;;;10.43;51.33;100094.89;1392057;87;21496;-81
2022/04/21 07:35:11;;;;;;;17.83;12.50;;;;;;;10.57;50.63;100096.97;1392327;88;21303;-81
2022/04/21 07:37:39;;;;;;;15.87;12.90;;;;;;;10.66;50.12;100094.70;1392333;88;21311;-81
2022/04/21 07:40:08;;;;;;;17.40;12.70;;;;;;;10.72;49.68;100099.38;1392239;88;21179;-85
2022/04/21 07:42:35;;;;;;;36.57;13.93;;;;;;;10.71;49.29;100089.78;1392191;88;21288;-85
2022/04/21 07:45:06;;;;;;;74.73;14.60;;;;;;;10.80;49.96;100096.78;1392376;87;21208;-85
2022/04/21 07:47:33;;;;;;;16.10;12.30;;;;;;;10.89;49.22;100096.83;1392776;88;21295;-85
2022/04/21 07:50:05;;;;;;;17.17;12.57;;;;;;;11.02;49.13;100091.94;1374622;88;21237;-85
2022/04/21 07:55:23;;;;;;;25.63;14.33;;;;;;;11.44;47.01;100092.41;1392438;88;21311;-86
2022/04/21 07:57:53;;;;;;;16.00;12.63;;;;;;;11.53;46.73;100095.41;1392290;88;22211;-84
2022/04/21 08:00:23;;;;;;;19.20;11.65;;;;;;;11.70;46.90;100090.47;1392902;88;22198;-85
2022/04/21 08:02:52;;;;;;;24.40;11.65;;;;;;;11.99;45.93;100077.28;1393365;88;21541;-84
2022/04/21 08:05:21;;;;;;;15.97;11.90;;;;;;;12.26;43.74;100084.59;1394870;88;21422;-84
2022/04/21 08:07:50;;;;;;;21.10;11.07;;;;;;;12.48;44.14;100077.75;1395693;88;22176;-85
2022/04/21 08:10:17;;;;;;;13.67;10.57;;;;;;;12.68;44.42;100079.55;1391012;88;21230;-85
2022/04/21 08:12:54;;;;;;;14.97;10.73;;;;;;;12.72;42.36;100078.22;1391897;88;21386;-84
2022/04/21 08:15:31;;;;;;;21.10;12.67;;;;;;;12.76;42.27;100078.20;1391940;88;21297;-86
2022/04/21 08:18:01;;;;;;;22.03;10.07;;;;;;;12.81;41.15;100071.88;1391086;88;21289;-85
2022/04/21 08:20:32;;;;;;;16.57;11.57;;;;;;;12.92;42.62;100079.96;1391715;88;22146;-85
2022/04/21 08:23:04;;;;;;;31.27;10.67;;;;;;;13.06;41.06;100080.09;1391746;88;21289;-83
2022/04/21 08:33:50;;;;;;;14.23;8.53;;;;;;;13.10;38.80;100069.44;1391290;88;21244;-84
2022/04/21 08:36:17;;;;;;;12.37;8.90;;;;;;;13.04;38.03;100068.80;1391053;88;21372;-84
2022/04/21 08:38:44;;;;;;;17.87;8.00;;;;;;;13.15;39.34;100064.09;1391009;88;21447;-85
2022/04/21 08:41:15;;;;;;;10.97;7.07;;;;;;;13.27;39.17;100065.42;1391222;88;21440;-85
2022/04/21 08:43:42;;;;;;;9.25;7.58;;;;;;;13.36;39.02;100065.70;1390884;88;21399;-87
2022/04/21 08:46:22;;;;;;;10.97;8.40;;;;;;;13.39;37.22;100064.02;1396490;88;21382;-84
2022/04/21 08:48:52;;;;;;;11.33;7.33;;;;;;;13.49;38.37;100069.11;1408307;87;21324;-83
2022/04/21 08:51:28;;;;;;;15.05;7.50;;;;;;;13.67;38.19;100063.53;1408336;87;21235;-84
2022/04/21 08:53:55;;;;;;;11.67;7.80;;;;;;;13.88;37.06;100054.39;1400171;87;21356;-83
2022/04/21 08:56:23;;;;;;;9.80;7.97;;;;;;;13.93;37.13;100063.17;1393808;88;21236;-83
2022/04/21 08:58:50;;;;;;;7.73;5.87;;;;;;;13.96;37.36;100054.84;1389349;88;21408;-83
2022/04/21 09:01:21;;;;;;;7.93;6.53;;;;;;;14.01;36.43;100063.09;1389415;87;21414;-84
2022/04/21 09:03:51;;;;;;;10.90;6.37;;;;;;;14.09;36.40;100057.70;1383205;88;21437;-85
2022/04/21 09:06:22;;;;;;;13.60;6.40;;;;;;;14.18;35.64;100058.46;1390160;88;21356;-84
2022/04/21 09:09:12;;;;;;;12.00;6.00;;;;;;;14.06;35.12;100055.91;1383119;89;22229;-83
2022/04/21 09:11:44;;;;;;;11.90;6.90;;;;;;;14.17;35.02;100054.16;1382531;89;22131;-84
2022/04/21 09:14:24;;;;;;;9.60;7.37;;;;;;;14.44;35.93;100057.57;1387815;89;21280;-84
2022/04/21 09:16:52;;;;;;;29.55;7.40;;;;;;;14.56;34.05;100062.48;1389145;86;21400;-85
2022/04/21 09:19:19;;;;;;;16.27;7.27;;;;;;;14.53;34.77;100058.83;1395007;89;21251;-84
2022/04/21 09:21:46;;;;;;;11.80;6.80;;;;;;;14.76;35.26;100060.93;1387665;88;21284;-83
2022/04/21 09:24:24;;;;;;;11.80;6.07;;;;;;;14.77;34.57;100063.08;1407360;87;21257;-83
2022/04/21 09:26:53;;;;;;;10.30;6.50;;;;;;;14.55;33.71;100056.81;1406519;87;21354;-85
2022/04/21 09:29:28;;;;;;;12.13;7.63;;;;;;;14.63;34.01;100058.06;1407022;87;21243;-85
2022/04/21 09:32:04;;;;;;;8.80;7.70;;;;;;;14.58;33.25;100056.45;1407619;87;21536;-84
2022/04/21 09:34:31;;;;;;;9.93;7.93;;;;;;;14.71;34.19;100056.65;1406895;87;21272;-84
2022/04/21 09:36:59;;;;;;;10.33;8.17;;;;;;;14.97;34.30;100047.37;1407078;87;21390;-83
2022/04/21 09:39:29;;;;;;;10.03;6.63;;;;;;;15.09;33.97;100040.03;1407122;87;21308;-84
2022/04/21 09:41:56;;;;;;;11.68;8.23;;;;;;;15.11;33.05;100045.19;1406974;87;21337;-85
2022/04/21 09:47:32;;;;;;;15.00;8.03;;;;;;;15.23;33.34;100042.35;1388214;89;21419;-84
2022/04/21 09:50:13;;;;;;;13.30;7.43;;;;;;;15.34;33.37;100031.20;1389605;87;21467;-84
2022/04/21 09:52:53;;;;;;;18.27;8.20;;;;;;;15.38;33.33;100036.98;1390201;88;21382;-83
2022/04/21 09:55:32;;;;;;;11.93;7.33;;;;;;;15.53;33.38;100026.27;1386272;87;21371;-84
2022/04/21 09:58:08;;;;;;;11.47;7.57;;;;;;;15.76;33.23;100022.92;1382809;88;21267;-83
2022/04/21 10:00:38;;;;;;;10.57;7.53;;;;;;;15.80;32.64;100026.06;1398430;87;21286;-83
2022/04/21 10:03:06;;;;;;;12.45;7.75;;;;;;;15.87;33.51;100015.44;1406354;87;21308;-82
2022/04/21 10:05:35;;;;;;;9.90;7.50;;;;;;;16.16;32.31;100019.26;1407062;87;21452;-83
2022/04/21 10:41:46;;;;;;;8.33;6.90;;;;;;;17.89;29.71;99999.94;1449114;85;28844;-81
2022/04/21 10:44:26;;;;;;;7.50;6.80;;;;;;;17.64;29.64;99990.34;1442774;89;22579;-81
2022/04/21 10:47:36;;;;;;;8.83;5.62;;;;;;;17.74;30.35;100000.11;1445453;88;21562;-83
2022/04/21 10:50:12;;;;;;;13.63;5.03;;;;;;;17.89;29.23;100001.28;1403271;92;21502;-83
2022/04/21 10:58:42;;;;;;;11.93;5.80;;;;;;;17.06;28.35;99987.31;1439191;90;23257;-83
2022/04/21 11:01:27;;;;;;;11.73;5.67;;;;;;;17.26;29.72;99986.03;1433961;90;22113;-82
2022/04/21 11:04:11;;;;;;;29.87;5.10;;;;;;;17.05;29.54;99989.16;1421068;88;21850;-84
2022/04/21 11:06:47;;;;;;;5.57;3.83;;;;;;;17.26;29.92;99980.69;1404278;92;21602;-83
2022/04/21 11:09:38;;;;;;;12.27;5.40;;;;;;;17.24;29.28;99981.42;1409523;92;21583;-83
2022/04/21 11:12:06;;;;;;;13.60;5.10;;;;;;;16.93;29.31;99980.08;1376031;94;21506;-83
2022/04/21 11:14:36;;;;;;;11.67;5.50;;;;;;;16.63;29.53;99977.66;1400147;92;21681;-84
2022/04/21 11:17:05;;;;;;;6.35;4.65;;;;;;;16.63;30.27;99980.34;1402883;92;22868;-83
2022/04/21 11:19:44;;;;;;;12.67;4.10;;;;;;;16.58;29.52;99974.75;1391092;92;21620;-83
2022/04/21 11:22:13;;;;;;;4.83;3.90;;;;;;;16.75;29.71;99980.59;1443197;89;21588;-83
2022/04/21 11:25:03;;;;;;;5.95;4.60;;;;;;;16.81;29.01;99977.67;1447865;89;22242;-83
2022/04/21 11:27:32;;;;;;;4.58;4.05;;;;;;;16.68;29.32;99976.53;1433284;90;22365;-83
2022/04/21 11:30:05;;;;;;;5.47;4.23;;;;;;;16.50;29.06;99980.77;1436559;90;21493;-83
2022/04/21 11:32:32;;;;;;;7.10;4.70;;;;;;;16.52;29.89;99984.08;1436568;90;22526;-82
2022/04/21 11:35:10;;;;;;;7.43;5.43;;;;;;;16.27;29.84;99977.03;1437019;90;21545;-83
2022/04/21 11:37:58;;;;;;;8.00;5.40;;;;;;;16.31;30.32;99976.95;1430835;90;21443;-83
2022/04/21 11:40:36;;;;;;;18.73;6.40;;;;;;;16.24;30.43;99976.91;1442892;90;22128;-83
2022/04/21 11:43:17;;;;;;;8.70;5.07;;;;;;;16.14;30.59;99973.27;1439174;89;22553;-83
2022/04/21 11:46:00;;;;;;;12.73;6.00;;;;;;;16.19;30.77;99973.48;1432681;89;21456;-81
2022/04/21 11:48:40;;;;;;;4.60;3.80;;;;;;;16.13;30.59;99958.25;1420681;90;21530;-83
2022/04/21 11:51:09;;;;;;;21.75;5.70;;;;;;;16.17;31.00;99972.88;1441719;89;21581;-83
2022/04/21 11:53:40;;;;;;;5.77;4.83;;;;;;;16.36;31.28;99967.84;1434130;90;21745;-83
2022/04/21 11:56:09;;;;;;;10.27;6.10;;;;;;;16.38;30.17;99967.97;1431643;90;21545;-85
2022/04/21 11:58:39;;;;;;;10.10;7.00;;;;;;;16.39;30.75;99962.11;1432521;90;21648;-84
2022/04/21 12:06:49;;;;;;;7.22;6.00;;;;;;;16.87;30.36;99960.84;1431260;90;22469;-84
2022/04/21 12:09:27;;;;;;;9.47;6.40;;;;;;;17.07;29.73;99956.37;1431570;90;21512;-83
2022/04/21 12:11:57;;;;;;;8.90;5.17;;;;;;;17.16;29.90;99955.67;1436142;90;21648;-83
2022/04/21 12:14:24;;;;;;;7.72;5.20;;;;;;;17.17;29.88;99948.48;1425875;90;21532;-83
2022/04/21 12:16:53;;;;;;;6.43;5.50;;;;;;;17.06;29.87;99946.72;1425174;90;21599;-83
2022/04/21 12:19:35;;;;;;;8.63;5.50;;;;;;;17.06;29.89;99941.38;1433489;90;21677;-83
2022/04/21 12:22:11;;;;;;;10.20;6.10;;;;;;;17.03;29.74;99947.61;1415732;90;21663;-82
2022/04/21 12:24:47;;;;;;;10.77;5.60;;;;;;;17.01;29.63;99943.00;1430591;90;21566;-83
2022/04/21 12:27:23;;;;;;;7.80;5.50;;;;;;;17.01;29.62;99942.48;1426710;90;22427;-81
2022/04/21 12:30:00;;;;;;;9.30;5.37;;;;;;;17.09;29.69;99938.78;1447131;89;21463;-83
2022/04/21 12:32:33;;;;;;;5.00;4.50;;;;;;;16.82;29.37;99941.38;1446265;89;21685;-82
2022/04/21 12:35:03;;;;;;;109.70;11.77;;;;;;;16.80;30.19;99938.10;1425211;91;22551;-83
2022/04/21 12:37:39;;;;;;;7.85;4.70;;;;;;;16.83;30.07;99936.85;1443374;89;21427;-82
2022/04/21 12:40:09;;;;;;;9.07;6.77;;;;;;;16.79;29.76;99940.96;1442508;89;21595;-82
2022/04/21 12:42:37;;;;;;;5.40;4.65;;;;;;;16.76;29.91;99946.67;1427532;89;21486;-82
2022/04/21 12:45:05;;;;;;;7.87;6.43;;;;;;;16.77;30.20;99942.48;1437084;90;21673;-82
2022/04/21 12:47:49;;;;;;;8.97;5.70;;;;;;;16.72;30.19;99948.93;1420210;91;22375;-83
2022/04/21 12:50:26;;;;;;;12.13;7.83;;;;;;;16.52;29.92;99943.49;1431770;90;21340;-82
2022/04/21 12:52:58;;;;;;;57.83;8.30;;;;;;;16.42;30.62;99945.17;1431392;91;21699;-82
2022/04/21 12:55:29;;;;;;;6.97;5.63;;;;;;;16.42;30.78;99945.69;1455712;90;21603;-83
2022/04/21 12:58:09;;;;;;;10.60;5.93;;;;;;;16.36;30.81;99951.82;1415730;90;22001;-83